sensor_id;sensor_type;location;lat;lon;timestamp;P1;durP1;ratioP1;P2;durP2;ratioP2
2388;SDS011;1205;47.984;7.668;2023-06-24T00:00:03;10.80;;;5.27;;
2388;SDS011;1205;47.984;7.668;2023-06-24T00:02:32;7.00;;;5.70;;
2388;SDS011;1205;47.984;7.668;2023-06-24T00:05:02;5.50;;;4.97;;
2388;SDS011;1205;47.984;7.668;2023-06-24T00:07:29;6.17;;;5.67;;
2388;SDS011;1205;47.984;7.668;2023-06-24T00:09:54;6.63;;;5.27;;
2388;SDS011;1205;47.984;7.668;2023-06-24T00:12:20;8.10;;;5.70;;
2388;SDS011;1205;47.984;7.668;2023-06-24T00:14:46;11.87;;;6.33;;
2388;SDS011;1205;47.984;7.668;2023-06-24T00:17:12;5.70;;;5.30;;
2388;SDS011;1205;47.984;7.668;2023-06-24T00:19:38;6.33;;;5.80;;
2388;SDS011;1205;47.984;7.668;2023-06-24T00:22:03;6.27;;;5.67;;
2388;SDS011;1205;47.984;7.668;2023-06-24T00:24:31;5.90;;;5.40;;
2388;SDS011;1205;47.984;7.668;2023-06-24T00:26:56;11.50;;;5.20;;
2388;SDS011;1205;47.984;7.668;2023-06-24T00:29:22;6.03;;;5.33;;
2388;SDS011;1205;47.984;7.668;2023-06-24T00:31:47;6.10;;;5.50;;
2388;SDS011;1205;47.984;7.668;2023-06-24T00:34:13;5.73;;;5.13;;
2388;SDS011;1205;47.984;7.668;2023-06-24T00:36:39;7.80;;;5.77;;
2388;SDS011;1205;47.984;7.668;2023-06-24T00:39:05;6.63;;;5.20;;
2388;SDS011;1205;47.984;7.668;2023-06-24T00:41:31;7.70;;;5.77;;
2388;SDS011;1205;47.984;7.668;2023-06-24T00:43:58;5.27;;;4.77;;
2388;SDS011;1205;47.984;7.668;2023-06-24T00:46:24;7.37;;;5.50;;
2388;SDS011;1205;47.984;7.668;2023-06-24T00:48:56;7.33;;;5.50;;
2388;SDS011;1205;47.984;7.668;2023-06-24T00:51:23;6.10;;;5.57;;
2388;SDS011;1205;47.984;7.668;2023-06-24T00:53:58;5.80;;;5.30;;
2388;SDS011;1205;47.984;7.668;2023-06-24T00:56:30;6.03;;;5.47;;
2388;SDS011;1205;47.984;7.668;2023-06-24T00:58:58;6.10;;;5.50;;
2388;SDS011;1205;47.984;7.668;2023-06-24T01:01:28;5.50;;;5.00;;
2388;SDS011;1205;47.984;7.668;2023-06-24T01:03:58;7.03;;;5.80;;
2388;SDS011;1205;47.984;7.668;2023-06-24T01:06:24;7.37;;;5.03;;
2388;SDS011;1205;47.984;7.668;2023-06-24T01:08:53;5.63;;;5.13;;
2388;SDS011;1205;47.984;7.668;2023-06-24T01:11:21;5.47;;;5.00;;
2388;SDS011;1205;47.984;7.668;2023-06-24T01:13:47;6.63;;;5.50;;
2388;SDS011;1205;47.984;7.668;2023-06-24T01:16:16;7.70;;;5.30;;
2388;SDS011;1205;47.984;7.668;2023-06-24T01:22:32;9.37;;;5.97;;
2388;SDS011;1205;47.984;7.668;2023-06-24T01:34:36;5.50;;;5.10;;
2388;SDS011;1205;47.984;7.668;2023-06-24T01:36:46;10.90;;;5.13;;
2388;SDS011;1205;47.984;7.668;2023-06-24T01:39:16;5.70;;;5.20;;
2388;SDS011;1205;47.984;7.668;2023-06-24T01:41:47;6.97;;;5.50;;
2388;SDS011;1205;47.984;7.668;2023-06-24T01:44:23;12.23;;;7.00;;
2388;SDS011;1205;47.984;7.668;2023-06-24T01:46:51;6.50;;;5.90;;
2388;SDS011;1205;47.984;7.668;2023-06-24T01:49:22;7.30;;;5.63;;
2388;SDS011;1205;47.984;7.668;2023-06-24T01:51:48;10.43;;;6.13;;
2388;SDS011;1205;47.984;7.668;2023-06-24T01:54:16;7.67;;;6.40;;
2388;SDS011;1205;47.984;7.668;2023-06-24T01:56:44;6.53;;;5.83;;
2388;SDS011;1205;47.984;7.668;2023-06-24T01:59:13;8.40;;;4.90;;
2388;SDS011;1205;47.984;7.668;2023-06-24T02:01:40;7.47;;;6.00;;
2388;SDS011;1205;47.984;7.668;2023-06-24T02:04:08;9.57;;;6.03;;
2388;SDS011;1205;47.984;7.668;2023-06-24T02:06:35;6.80;;;6.10;;
2388;SDS011;1205;47.984;7.668;2023-06-24T02:09:02;11.13;;;6.37;;
2388;SDS011;1205;47.984;7.668;2023-06-24T02:11:30;14.50;;;6.00;;
2388;SDS011;1205;47.984;7.668;2023-06-24T02:13:58;10.07;;;6.00;;
2388;SDS011;1205;47.984;7.668;2023-06-24T02:16:26;6.50;;;5.90;;
2388;SDS011;1205;47.984;7.668;2023-06-24T02:18:52;5.83;;;5.33;;
2388;SDS011;1205;47.984;7.668;2023-06-24T02:21:20;8.97;;;6.23;;
2388;SDS011;1205;47.984;7.668;2023-06-24T02:23:47;9.33;;;6.33;;
2388;SDS011;1205;47.984;7.668;2023-06-24T02:26:13;6.73;;;6.10;;
2388;SDS011;1205;47.984;7.668;2023-06-24T02:28:41;13.70;;;7.00;;
2388;SDS011;1205;47.984;7.668;2023-06-24T02:31:09;7.67;;;6.80;;
2388;SDS011;1205;47.984;7.668;2023-06-24T02:33:37;7.80;;;6.43;;
2388;SDS011;1205;47.984;7.668;2023-06-24T02:36:02;7.47;;;6.73;;
2388;SDS011;1205;47.984;7.668;2023-06-24T02:38:28;7.00;;;5.90;;
2388;SDS011;1205;47.984;7.668;2023-06-24T02:40:54;6.43;;;5.83;;
2388;SDS011;1205;47.984;7.668;2023-06-24T02:43:19;12.17;;;5.90;;
2388;SDS011;1205;47.984;7.668;2023-06-24T02:45:45;13.67;;;6.87;;
2388;SDS011;1205;47.984;7.668;2023-06-24T02:48:13;13.57;;;5.87;;
2388;SDS011;1205;47.984;7.668;2023-06-24T02:50:40;12.63;;;5.47;;
2388;SDS011;1205;47.984;7.668;2023-06-24T02:53:10;10.40;;;5.40;;
2388;SDS011;1205;47.984;7.668;2023-06-24T02:55:36;6.57;;;5.87;;
2388;SDS011;1205;47.984;7.668;2023-06-24T02:58:03;6.90;;;6.00;;
2388;SDS011;1205;47.984;7.668;2023-06-24T03:00:33;6.77;;;6.07;;
2388;SDS011;1205;47.984;7.668;2023-06-24T03:03:00;6.10;;;5.60;;
2388;SDS011;1205;47.984;7.668;2023-06-24T03:05:27;8.37;;;5.77;;
2388;SDS011;1205;47.984;7.668;2023-06-24T03:07:54;7.30;;;6.57;;
2388;SDS011;1205;47.984;7.668;2023-06-24T03:10:19;5.70;;;5.20;;
2388;SDS011;1205;47.984;7.668;2023-06-24T03:12:47;10.03;;;6.93;;
2388;SDS011;1205;47.984;7.668;2023-06-24T03:15:13;7.73;;;6.30;;
2388;SDS011;1205;47.984;7.668;2023-06-24T03:17:38;6.27;;;5.77;;
2388;SDS011;1205;47.984;7.668;2023-06-24T03:20:04;5.70;;;5.30;;
2388;SDS011;1205;47.984;7.668;2023-06-24T03:22:31;11.80;;;5.67;;
2388;SDS011;1205;47.984;7.668;2023-06-24T03:24:56;9.83;;;6.20;;
2388;SDS011;1205;47.984;7.668;2023-06-24T03:27:22;10.20;;;7.07;;
2388;SDS011;1205;47.984;7.668;2023-06-24T03:29:47;7.80;;;6.40;;
2388;SDS011;1205;47.984;7.668;2023-06-24T03:32:13;6.67;;;6.10;;
2388;SDS011;1205;47.984;7.668;2023-06-24T03:34:39;8.13;;;5.50;;
2388;SDS011;1205;47.984;7.668;2023-06-24T03:37:04;11.80;;;6.00;;
2388;SDS011;1205;47.984;7.668;2023-06-24T03:39:30;8.60;;;4.97;;
2388;SDS011;1205;47.984;7.668;2023-06-24T03:41:55;5.93;;;4.83;;
2388;SDS011;1205;47.984;7.668;2023-06-24T03:44:21;9.63;;;5.33;;
2388;SDS011;1205;47.984;7.668;2023-06-24T03:46:46;8.83;;;5.60;;
2388;SDS011;1205;47.984;7.668;2023-06-24T03:49:12;12.70;;;5.50;;
2388;SDS011;1205;47.984;7.668;2023-06-24T03:51:38;8.93;;;5.60;;
2388;SDS011;1205;47.984;7.668;2023-06-24T03:54:03;7.87;;;6.13;;
2388;SDS011;1205;47.984;7.668;2023-06-24T03:56:29;9.63;;;6.03;;
2388;SDS011;1205;47.984;7.668;2023-06-24T03:58:54;6.80;;;5.17;;
2388;SDS011;1205;47.984;7.668;2023-06-24T04:01:20;7.77;;;5.47;;
2388;SDS011;1205;47.984;7.668;2023-06-24T04:03:46;6.43;;;5.33;;
2388;SDS011;1205;47.984;7.668;2023-06-24T04:06:12;9.37;;;5.70;;
2388;SDS011;1205;47.984;7.668;2023-06-24T04:08:38;5.63;;;5.13;;
2388;SDS011;1205;47.984;7.668;2023-06-24T04:11:08;9.10;;;6.23;;
2388;SDS011;1205;47.984;7.668;2023-06-24T04:13:34;6.27;;;5.80;;
2388;SDS011;1205;47.984;7.668;2023-06-24T04:16:00;6.30;;;5.80;;
2388;SDS011;1205;47.984;7.668;2023-06-24T04:18:25;7.47;;;6.60;;
2388;SDS011;1205;47.984;7.668;2023-06-24T04:20:51;5.30;;;4.80;;
2388;SDS011;1205;47.984;7.668;2023-06-24T04:23:17;8.30;;;6.30;;
2388;SDS011;1205;47.984;7.668;2023-06-24T04:25:42;7.20;;;5.57;;
2388;SDS011;1205;47.984;7.668;2023-06-24T04:28:08;7.13;;;5.90;;
2388;SDS011;1205;47.984;7.668;2023-06-24T04:30:34;8.47;;;6.10;;
2388;SDS011;1205;47.984;7.668;2023-06-24T04:33:03;8.30;;;6.13;;
2388;SDS011;1205;47.984;7.668;2023-06-24T04:35:29;8.30;;;6.40;;
2388;SDS011;1205;47.984;7.668;2023-06-24T04:37:55;10.03;;;6.30;;
2388;SDS011;1205;47.984;7.668;2023-06-24T04:40:21;11.33;;;5.57;;
2388;SDS011;1205;47.984;7.668;2023-06-24T04:42:47;7.90;;;5.90;;
2388;SDS011;1205;47.984;7.668;2023-06-24T04:45:12;9.30;;;6.60;;
2388;SDS011;1205;47.984;7.668;2023-06-24T04:47:38;9.40;;;6.10;;
2388;SDS011;1205;47.984;7.668;2023-06-24T04:50:04;6.60;;;6.00;;
2388;SDS011;1205;47.984;7.668;2023-06-24T04:52:30;7.10;;;6.43;;
2388;SDS011;1205;47.984;7.668;2023-06-24T04:54:55;11.10;;;6.57;;
2388;SDS011;1205;47.984;7.668;2023-06-24T04:57:26;9.53;;;6.30;;
2388;SDS011;1205;47.984;7.668;2023-06-24T04:59:53;6.80;;;5.37;;
2388;SDS011;1205;47.984;7.668;2023-06-24T05:02:18;6.00;;;5.40;;
2388;SDS011;1205;47.984;7.668;2023-06-24T05:04:44;7.63;;;5.17;;
2388;SDS011;1205;47.984;7.668;2023-06-24T05:07:09;9.43;;;6.27;;
2388;SDS011;1205;47.984;7.668;2023-06-24T05:09:35;9.27;;;5.67;;
2388;SDS011;1205;47.984;7.668;2023-06-24T05:12:04;7.30;;;5.20;;
2388;SDS011;1205;47.984;7.668;2023-06-24T05:14:30;7.57;;;5.23;;
2388;SDS011;1205;47.984;7.668;2023-06-24T05:16:56;12.17;;;5.77;;
2388;SDS011;1205;47.984;7.668;2023-06-24T05:19:21;6.90;;;5.40;;
2388;SDS011;1205;47.984;7.668;2023-06-24T05:21:47;10.47;;;5.60;;
2388;SDS011;1205;47.984;7.668;2023-06-24T05:24:13;7.10;;;6.27;;
2388;SDS011;1205;47.984;7.668;2023-06-24T05:26:38;11.03;;;5.50;;
2388;SDS011;1205;47.984;7.668;2023-06-24T05:29:04;6.50;;;5.83;;
2388;SDS011;1205;47.984;7.668;2023-06-24T05:31:29;7.20;;;6.30;;
2388;SDS011;1205;47.984;7.668;2023-06-24T05:33:55;12.00;;;7.47;;
2388;SDS011;1205;47.984;7.668;2023-06-24T05:36:20;8.10;;;7.10;;
2388;SDS011;1205;47.984;7.668;2023-06-24T05:38:46;6.50;;;5.90;;
2388;SDS011;1205;47.984;7.668;2023-06-24T05:41:13;8.97;;;6.50;;
2388;SDS011;1205;47.984;7.668;2023-06-24T05:43:39;9.67;;;6.77;;
2388;SDS011;1205;47.984;7.668;2023-06-24T05:46:05;7.43;;;5.97;;
2388;SDS011;1205;47.984;7.668;2023-06-24T05:48:30;10.87;;;6.50;;
2388;SDS011;1205;47.984;7.668;2023-06-24T05:50:56;7.90;;;6.00;;
2388;SDS011;1205;47.984;7.668;2023-06-24T05:53:21;7.57;;;6.77;;
2388;SDS011;1205;47.984;7.668;2023-06-24T05:55:47;7.93;;;7.07;;
2388;SDS011;1205;47.984;7.668;2023-06-24T05:58:13;8.90;;;7.97;;
2388;SDS011;1205;47.984;7.668;2023-06-24T06:00:38;12.37;;;7.63;;
2388;SDS011;1205;47.984;7.668;2023-06-24T06:03:04;8.57;;;7.77;;
2388;SDS011;1205;47.984;7.668;2023-06-24T06:05:30;8.37;;;7.10;;
2388;SDS011;1205;47.984;7.668;2023-06-24T06:07:55;10.70;;;7.73;;
2388;SDS011;1205;47.984;7.668;2023-06-24T06:10:21;12.73;;;7.13;;
2388;SDS011;1205;47.984;7.668;2023-06-24T06:12:46;7.10;;;6.40;;
2388;SDS011;1205;47.984;7.668;2023-06-24T06:15:12;10.57;;;7.80;;
2388;SDS011;1205;47.984;7.668;2023-06-24T06:17:38;9.53;;;6.77;;
2388;SDS011;1205;47.984;7.668;2023-06-24T06:20:03;8.57;;;7.60;;
2388;SDS011;1205;47.984;7.668;2023-06-24T06:22:29;11.97;;;7.90;;
2388;SDS011;1205;47.984;7.668;2023-06-24T06:24:57;7.73;;;7.03;;
2388;SDS011;1205;47.984;7.668;2023-06-24T06:27:22;9.43;;;7.30;;
2388;SDS011;1205;47.984;7.668;2023-06-24T06:29:48;8.17;;;7.47;;
2388;SDS011;1205;47.984;7.668;2023-06-24T06:32:13;12.83;;;7.93;;
2388;SDS011;1205;47.984;7.668;2023-06-24T06:34:39;9.47;;;8.20;;
2388;SDS011;1205;47.984;7.668;2023-06-24T06:37:05;8.87;;;7.40;;
2388;SDS011;1205;47.984;7.668;2023-06-24T06:39:30;11.33;;;7.37;;
2388;SDS011;1205;47.984;7.668;2023-06-24T06:41:56;14.13;;;8.00;;
2388;SDS011;1205;47.984;7.668;2023-06-24T06:44:22;9.27;;;7.17;;
2388;SDS011;1205;47.984;7.668;2023-06-24T06:46:47;8.90;;;8.00;;
2388;SDS011;1205;47.984;7.668;2023-06-24T06:49:13;9.97;;;7.33;;
2388;SDS011;1205;47.984;7.668;2023-06-24T06:51:38;6.87;;;6.27;;
2388;SDS011;1205;47.984;7.668;2023-06-24T06:54:04;8.60;;;7.90;;
2388;SDS011;1205;47.984;7.668;2023-06-24T06:56:29;7.97;;;6.73;;
2388;SDS011;1205;47.984;7.668;2023-06-24T06:58:55;11.80;;;7.23;;
2388;SDS011;1205;47.984;7.668;2023-06-24T07:01:20;8.87;;;8.00;;
2388;SDS011;1205;47.984;7.668;2023-06-24T07:03:46;11.13;;;8.47;;
2388;SDS011;1205;47.984;7.668;2023-06-24T07:06:14;9.10;;;8.17;;
2388;SDS011;1205;47.984;7.668;2023-06-24T07:08:39;8.73;;;8.03;;
2388;SDS011;1205;47.984;7.668;2023-06-24T07:11:05;10.80;;;8.37;;
2388;SDS011;1205;47.984;7.668;2023-06-24T07:13:30;8.80;;;7.43;;
2388;SDS011;1205;47.984;7.668;2023-06-24T07:15:56;11.27;;;7.50;;
2388;SDS011;1205;47.984;7.668;2023-06-24T07:18:22;8.17;;;7.23;;
2388;SDS011;1205;47.984;7.668;2023-06-24T07:20:48;8.73;;;7.83;;
2388;SDS011;1205;47.984;7.668;2023-06-24T07:23:13;7.23;;;6.53;;
2388;SDS011;1205;47.984;7.668;2023-06-24T07:25:39;8.20;;;6.70;;
2388;SDS011;1205;47.984;7.668;2023-06-24T07:28:05;7.23;;;6.13;;
2388;SDS011;1205;47.984;7.668;2023-06-24T07:30:30;6.30;;;5.90;;
2388;SDS011;1205;47.984;7.668;2023-06-24T07:32:56;15.40;;;6.70;;
2388;SDS011;1205;47.984;7.668;2023-06-24T07:35:21;9.10;;;5.97;;
2388;SDS011;1205;47.984;7.668;2023-06-24T07:37:47;7.77;;;5.70;;
2388;SDS011;1205;47.984;7.668;2023-06-24T07:40:12;7.00;;;4.77;;
2388;SDS011;1205;47.984;7.668;2023-06-24T07:42:38;5.43;;;4.93;;
2388;SDS011;1205;47.984;7.668;2023-06-24T07:45:04;5.93;;;5.30;;
2388;SDS011;1205;47.984;7.668;2023-06-24T07:47:30;5.63;;;5.23;;
2388;SDS011;1205;47.984;7.668;2023-06-24T07:49:57;6.27;;;5.70;;
2388;SDS011;1205;47.984;7.668;2023-06-24T07:52:22;7.20;;;5.37;;
2388;SDS011;1205;47.984;7.668;2023-06-24T07:54:48;5.40;;;4.93;;
2388;SDS011;1205;47.984;7.668;2023-06-24T07:57:13;5.97;;;5.40;;
2388;SDS011;1205;47.984;7.668;2023-06-24T07:59:39;5.80;;;5.00;;
2388;SDS011;1205;47.984;7.668;2023-06-24T08:02:04;5.60;;;5.10;;
2388;SDS011;1205;47.984;7.668;2023-06-24T08:04:30;5.33;;;4.83;;
2388;SDS011;1205;47.984;7.668;2023-06-24T08:06:56;5.27;;;4.90;;
2388;SDS011;1205;47.984;7.668;2023-06-24T08:09:21;5.20;;;4.80;;
2388;SDS011;1205;47.984;7.668;2023-06-24T08:11:47;5.70;;;5.20;;
2388;SDS011;1205;47.984;7.668;2023-06-24T08:14:13;6.03;;;5.57;;
2388;SDS011;1205;47.984;7.668;2023-06-24T08:16:38;6.07;;;5.37;;
2388;SDS011;1205;47.984;7.668;2023-06-24T08:19:04;6.30;;;5.70;;
2388;SDS011;1205;47.984;7.668;2023-06-24T08:21:29;5.20;;;4.80;;
2388;SDS011;1205;47.984;7.668;2023-06-24T08:23:55;5.23;;;4.73;;
2388;SDS011;1205;47.984;7.668;2023-06-24T08:26:20;4.50;;;4.10;;
2388;SDS011;1205;47.984;7.668;2023-06-24T08:28:47;4.70;;;4.30;;
2388;SDS011;1205;47.984;7.668;2023-06-24T08:31:13;4.53;;;4.30;;
2388;SDS011;1205;47.984;7.668;2023-06-24T08:33:38;5.07;;;4.70;;
2388;SDS011;1205;47.984;7.668;2023-06-24T08:36:06;5.30;;;4.80;;
2388;SDS011;1205;47.984;7.668;2023-06-24T08:38:32;6.77;;;4.80;;
2388;SDS011;1205;47.984;7.668;2023-06-24T08:40:58;3.80;;;3.57;;
2388;SDS011;1205;47.984;7.668;2023-06-24T08:43:24;4.50;;;4.00;;
2388;SDS011;1205;47.984;7.668;2023-06-24T08:45:49;4.30;;;4.00;;
2388;SDS011;1205;47.984;7.668;2023-06-24T08:48:15;3.53;;;3.23;;
2388;SDS011;1205;47.984;7.668;2023-06-24T08:50:43;3.73;;;3.43;;
2388;SDS011;1205;47.984;7.668;2023-06-24T08:53:11;6.70;;;4.03;;
2388;SDS011;1205;47.984;7.668;2023-06-24T08:55:48;8.83;;;4.00;;
2388;SDS011;1205;47.984;7.668;2023-06-24T08:58:14;15.37;;;4.23;;
2388;SDS011;1205;47.984;7.668;2023-06-24T09:00:40;4.73;;;4.43;;
2388;SDS011;1205;47.984;7.668;2023-06-24T09:03:07;4.53;;;4.23;;
2388;SDS011;1205;47.984;7.668;2023-06-24T09:05:33;4.13;;;3.83;;
2388;SDS011;1205;47.984;7.668;2023-06-24T09:07:58;8.23;;;4.30;;
2388;SDS011;1205;47.984;7.668;2023-06-24T09:10:37;6.13;;;4.20;;
2388;SDS011;1205;47.984;7.668;2023-06-24T09:13:03;5.83;;;4.40;;
2388;SDS011;1205;47.984;7.668;2023-06-24T09:15:31;5.03;;;3.93;;
2388;SDS011;1205;47.984;7.668;2023-06-24T09:17:57;5.47;;;4.30;;
2388;SDS011;1205;47.984;7.668;2023-06-24T09:20:22;4.47;;;4.00;;
2388;SDS011;1205;47.984;7.668;2023-06-24T09:22:48;4.57;;;4.17;;
2388;SDS011;1205;47.984;7.668;2023-06-24T09:25:17;9.93;;;4.20;;
2388;SDS011;1205;47.984;7.668;2023-06-24T09:27:47;4.93;;;4.50;;
2388;SDS011;1205;47.984;7.668;2023-06-24T09:30:17;4.30;;;4.00;;
2388;SDS011;1205;47.984;7.668;2023-06-24T09:32:47;3.90;;;3.70;;
2388;SDS011;1205;47.984;7.668;2023-06-24T09:35:14;8.00;;;3.60;;
2388;SDS011;1205;47.984;7.668;2023-06-24T09:37:42;6.63;;;4.10;;
2388;SDS011;1205;47.984;7.668;2023-06-24T09:40:08;4.20;;;3.90;;
2388;SDS011;1205;47.984;7.668;2023-06-24T09:42:35;4.10;;;3.83;;
2388;SDS011;1205;47.984;7.668;2023-06-24T09:45:04;4.17;;;3.97;;
2388;SDS011;1205;47.984;7.668;2023-06-24T09:47:30;3.93;;;3.63;;
2388;SDS011;1205;47.984;7.668;2023-06-24T09:49:56;4.60;;;3.97;;
2388;SDS011;1205;47.984;7.668;2023-06-24T09:52:22;4.03;;;3.63;;
2388;SDS011;1205;47.984;7.668;2023-06-24T09:54:50;4.03;;;3.73;;
2388;SDS011;1205;47.984;7.668;2023-06-24T09:57:17;4.70;;;4.40;;
2388;SDS011;1205;47.984;7.668;2023-06-24T09:59:49;5.33;;;4.17;;
2388;SDS011;1205;47.984;7.668;2023-06-24T10:02:16;4.40;;;4.10;;
2388;SDS011;1205;47.984;7.668;2023-06-24T10:04:43;3.90;;;3.70;;
2388;SDS011;1205;47.984;7.668;2023-06-24T10:07:09;4.27;;;4.00;;
2388;SDS011;1205;47.984;7.668;2023-06-24T10:09:36;4.07;;;3.77;;
2388;SDS011;1205;47.984;7.668;2023-06-24T10:12:03;4.50;;;4.10;;
2388;SDS011;1205;47.984;7.668;2023-06-24T10:14:29;5.43;;;4.10;;
2388;SDS011;1205;47.984;7.668;2023-06-24T10:17:02;4.37;;;4.10;;
2388;SDS011;1205;47.984;7.668;2023-06-24T10:19:28;3.73;;;3.53;;
2388;SDS011;1205;47.984;7.668;2023-06-24T10:21:57;4.27;;;3.97;;
2388;SDS011;1205;47.984;7.668;2023-06-24T10:27:00;5.63;;;4.23;;
2388;SDS011;1205;47.984;7.668;2023-06-24T10:29:31;4.30;;;4.07;;
2388;SDS011;1205;47.984;7.668;2023-06-24T10:32:01;5.53;;;4.13;;
2388;SDS011;1205;47.984;7.668;2023-06-24T10:44:49;4.53;;;4.13;;
2388;SDS011;1205;47.984;7.668;2023-06-24T10:47:15;11.13;;;4.63;;
2388;SDS011;1205;47.984;7.668;2023-06-24T10:49:41;4.53;;;4.10;;
2388;SDS011;1205;47.984;7.668;2023-06-24T10:52:10;5.10;;;4.00;;
2388;SDS011;1205;47.984;7.668;2023-06-24T10:54:39;5.87;;;4.27;;
2388;SDS011;1205;47.984;7.668;2023-06-24T10:57:10;4.43;;;3.90;;
2388;SDS011;1205;47.984;7.668;2023-06-24T10:59:46;5.33;;;4.70;;
2388;SDS011;1205;47.984;7.668;2023-06-24T11:02:13;5.03;;;4.33;;
2388;SDS011;1205;47.984;7.668;2023-06-24T11:04:45;4.93;;;4.40;;
2388;SDS011;1205;47.984;7.668;2023-06-24T11:07:12;4.00;;;3.60;;
2388;SDS011;1205;47.984;7.668;2023-06-24T11:09:38;4.80;;;4.40;;
2388;SDS011;1205;47.984;7.668;2023-06-24T11:12:05;4.00;;;3.70;;
2388;SDS011;1205;47.984;7.668;2023-06-24T11:14:33;4.13;;;3.83;;
2388;SDS011;1205;47.984;7.668;2023-06-24T11:17:02;6.93;;;3.73;;
2388;SDS011;1205;47.984;7.668;2023-06-24T11:19:29;9.77;;;4.07;;
2388;SDS011;1205;47.984;7.668;2023-06-24T11:21:58;5.00;;;4.00;;
2388;SDS011;1205;47.984;7.668;2023-06-24T11:24:25;3.90;;;3.60;;
2388;SDS011;1205;47.984;7.668;2023-06-24T11:26:51;4.10;;;3.80;;
2388;SDS011;1205;47.984;7.668;2023-06-24T11:29:16;3.93;;;3.73;;
2388;SDS011;1205;47.984;7.668;2023-06-24T11:31:42;4.17;;;3.97;;
2388;SDS011;1205;47.984;7.668;2023-06-24T11:34:10;3.97;;;3.77;;
2388;SDS011;1205;47.984;7.668;2023-06-24T11:36:36;3.70;;;3.40;;
2388;SDS011;1205;47.984;7.668;2023-06-24T11:39:01;4.00;;;3.80;;
2388;SDS011;1205;47.984;7.668;2023-06-24T11:41:28;4.50;;;4.20;;
2388;SDS011;1205;47.984;7.668;2023-06-24T11:43:53;3.70;;;3.50;;
2388;SDS011;1205;47.984;7.668;2023-06-24T11:46:28;3.73;;;3.53;;
2388;SDS011;1205;47.984;7.668;2023-06-24T11:49:06;3.70;;;3.33;;
2388;SDS011;1205;47.984;7.668;2023-06-24T11:51:33;10.33;;;3.47;;
2388;SDS011;1205;47.984;7.668;2023-06-24T11:53:59;4.43;;;3.70;;
2388;SDS011;1205;47.984;7.668;2023-06-24T11:56:36;3.37;;;3.17;;
2388;SDS011;1205;47.984;7.668;2023-06-24T12:01:57;4.00;;;3.70;;
2388;SDS011;1205;47.984;7.668;2023-06-24T12:04:28;3.67;;;3.37;;
2388;SDS011;1205;47.984;7.668;2023-06-24T12:06:58;3.90;;;3.60;;
2388;SDS011;1205;47.984;7.668;2023-06-24T12:09:23;4.20;;;3.90;;
2388;SDS011;1205;47.984;7.668;2023-06-24T12:11:49;3.83;;;3.63;;
2388;SDS011;1205;47.984;7.668;2023-06-24T12:14:17;5.50;;;3.73;;
2388;SDS011;1205;47.984;7.668;2023-06-24T12:16:43;3.57;;;3.47;;
2388;SDS011;1205;47.984;7.668;2023-06-24T12:19:08;3.70;;;3.50;;
2388;SDS011;1205;47.984;7.668;2023-06-24T12:21:34;4.20;;;3.90;;
2388;SDS011;1205;47.984;7.668;2023-06-24T12:24:03;4.37;;;3.90;;
2388;SDS011;1205;47.984;7.668;2023-06-24T12:26:30;3.17;;;2.97;;
2388;SDS011;1205;47.984;7.668;2023-06-24T12:28:56;3.70;;;3.50;;
2388;SDS011;1205;47.984;7.668;2023-06-24T12:31:23;4.23;;;3.90;;
2388;SDS011;1205;47.984;7.668;2023-06-24T12:33:49;3.87;;;3.60;;
2388;SDS011;1205;47.984;7.668;2023-06-24T12:36:15;3.50;;;3.30;;
2388;SDS011;1205;47.984;7.668;2023-06-24T12:38:41;4.50;;;4.10;;
2388;SDS011;1205;47.984;7.668;2023-06-24T12:41:06;3.63;;;3.43;;
2388;SDS011;1205;47.984;7.668;2023-06-24T12:43:32;3.90;;;3.70;;
2388;SDS011;1205;47.984;7.668;2023-06-24T12:45:58;5.20;;;3.20;;
2388;SDS011;1205;47.984;7.668;2023-06-24T12:48:23;3.90;;;3.60;;
2388;SDS011;1205;47.984;7.668;2023-06-24T12:50:49;3.43;;;3.23;;
2388;SDS011;1205;47.984;7.668;2023-06-24T12:53:18;5.37;;;3.97;;
2388;SDS011;1205;47.984;7.668;2023-06-24T12:55:46;3.37;;;3.17;;
2388;SDS011;1205;47.984;7.668;2023-06-24T12:58:18;3.37;;;3.17;;
2388;SDS011;1205;47.984;7.668;2023-06-24T13:00:44;3.60;;;3.30;;
2388;SDS011;1205;47.984;7.668;2023-06-24T13:03:10;3.13;;;3.03;;
2388;SDS011;1205;47.984;7.668;2023-06-24T13:05:35;3.73;;;3.00;;
2388;SDS011;1205;47.984;7.668;2023-06-24T13:08:01;3.10;;;3.00;;
2388;SDS011;1205;47.984;7.668;2023-06-24T13:10:26;3.73;;;3.43;;
2388;SDS011;1205;47.984;7.668;2023-06-24T13:12:52;4.10;;;3.20;;
2388;SDS011;1205;47.984;7.668;2023-06-24T13:15:18;3.60;;;3.30;;
2388;SDS011;1205;47.984;7.668;2023-06-24T13:17:44;3.87;;;3.57;;
2388;SDS011;1205;47.984;7.668;2023-06-24T13:20:09;3.33;;;3.17;;
2388;SDS011;1205;47.984;7.668;2023-06-24T13:22:35;3.60;;;3.40;;
2388;SDS011;1205;47.984;7.668;2023-06-24T13:25:01;3.70;;;3.40;;
2388;SDS011;1205;47.984;7.668;2023-06-24T13:27:26;4.10;;;3.50;;
2388;SDS011;1205;47.984;7.668;2023-06-24T13:29:52;3.70;;;3.50;;
2388;SDS011;1205;47.984;7.668;2023-06-24T13:32:18;3.97;;;3.20;;
2388;SDS011;1205;47.984;7.668;2023-06-24T13:34:44;4.00;;;3.70;;
2388;SDS011;1205;47.984;7.668;2023-06-24T13:37:10;3.70;;;3.43;;
2388;SDS011;1205;47.984;7.668;2023-06-24T13:39:35;3.47;;;3.20;;
2388;SDS011;1205;47.984;7.668;2023-06-24T13:42:01;3.60;;;3.33;;
2388;SDS011;1205;47.984;7.668;2023-06-24T13:44:26;3.00;;;2.90;;
2388;SDS011;1205;47.984;7.668;2023-06-24T13:46:52;3.60;;;3.40;;
2388;SDS011;1205;47.984;7.668;2023-06-24T13:49:21;4.50;;;3.50;;
2388;SDS011;1205;47.984;7.668;2023-06-24T13:51:47;3.30;;;3.10;;
2388;SDS011;1205;47.984;7.668;2023-06-24T13:54:13;3.07;;;2.87;;
2388;SDS011;1205;47.984;7.668;2023-06-24T13:56:39;3.80;;;3.47;;
2388;SDS011;1205;47.984;7.668;2023-06-24T13:59:04;3.43;;;3.23;;
2388;SDS011;1205;47.984;7.668;2023-06-24T14:01:30;3.53;;;2.80;;
2388;SDS011;1205;47.984;7.668;2023-06-24T14:03:56;3.50;;;3.30;;
2388;SDS011;1205;47.984;7.668;2023-06-24T14:06:22;3.40;;;3.20;;
2388;SDS011;1205;47.984;7.668;2023-06-24T14:08:49;3.47;;;3.17;;
2388;SDS011;1205;47.984;7.668;2023-06-24T14:11:18;3.67;;;3.37;;
2388;SDS011;1205;47.984;7.668;2023-06-24T14:13:43;4.93;;;3.63;;
2388;SDS011;1205;47.984;7.668;2023-06-24T14:16:09;2.67;;;2.57;;
2388;SDS011;1205;47.984;7.668;2023-06-24T14:18:36;3.43;;;3.23;;
2388;SDS011;1205;47.984;7.668;2023-06-24T14:21:02;6.50;;;3.17;;
2388;SDS011;1205;47.984;7.668;2023-06-24T14:23:29;5.77;;;3.57;;
2388;SDS011;1205;47.984;7.668;2023-06-24T14:25:56;3.00;;;2.90;;
2388;SDS011;1205;47.984;7.668;2023-06-24T14:28:22;3.73;;;3.43;;
2388;SDS011;1205;47.984;7.668;2023-06-24T14:30:48;3.30;;;3.00;;
2388;SDS011;1205;47.984;7.668;2023-06-24T14:33:14;3.10;;;2.90;;
2388;SDS011;1205;47.984;7.668;2023-06-24T14:35:40;3.03;;;2.93;;
2388;SDS011;1205;47.984;7.668;2023-06-24T14:38:06;2.97;;;2.80;;
2388;SDS011;1205;47.984;7.668;2023-06-24T14:40:32;3.07;;;2.87;;
2388;SDS011;1205;47.984;7.668;2023-06-24T14:42:58;4.50;;;3.00;;
2388;SDS011;1205;47.984;7.668;2023-06-24T14:45:24;3.60;;;3.40;;
2388;SDS011;1205;47.984;7.668;2023-06-24T14:47:50;3.50;;;3.30;;
2388;SDS011;1205;47.984;7.668;2023-06-24T14:50:16;4.33;;;3.07;;
2388;SDS011;1205;47.984;7.668;2023-06-24T14:52:42;3.13;;;3.03;;
2388;SDS011;1205;47.984;7.668;2023-06-24T14:55:08;3.17;;;3.07;;
2388;SDS011;1205;47.984;7.668;2023-06-24T14:57:34;3.27;;;2.97;;
2388;SDS011;1205;47.984;7.668;2023-06-24T15:00:00;4.00;;;3.70;;
2388;SDS011;1205;47.984;7.668;2023-06-24T15:02:26;3.30;;;3.00;;
2388;SDS011;1205;47.984;7.668;2023-06-24T15:04:51;3.63;;;3.33;;
2388;SDS011;1205;47.984;7.668;2023-06-24T15:07:17;3.17;;;3.07;;
2388;SDS011;1205;47.984;7.668;2023-06-24T15:09:43;3.70;;;3.33;;
2388;SDS011;1205;47.984;7.668;2023-06-24T15:12:09;4.10;;;3.77;;
2388;SDS011;1205;47.984;7.668;2023-06-24T15:14:35;4.97;;;4.40;;
2388;SDS011;1205;47.984;7.668;2023-06-24T15:17:00;3.57;;;3.33;;
2388;SDS011;1205;47.984;7.668;2023-06-24T15:19:26;3.53;;;3.33;;
2388;SDS011;1205;47.984;7.668;2023-06-24T15:21:52;3.23;;;3.13;;
2388;SDS011;1205;47.984;7.668;2023-06-24T15:24:18;2.97;;;2.80;;
2388;SDS011;1205;47.984;7.668;2023-06-24T15:26:43;3.20;;;3.00;;
2388;SDS011;1205;47.984;7.668;2023-06-24T15:29:09;3.07;;;2.97;;
2388;SDS011;1205;47.984;7.668;2023-06-24T15:31:34;3.97;;;3.67;;
2388;SDS011;1205;47.984;7.668;2023-06-24T15:34:00;3.50;;;3.20;;
2388;SDS011;1205;47.984;7.668;2023-06-24T15:36:26;5.27;;;3.43;;
2388;SDS011;1205;47.984;7.668;2023-06-24T15:38:53;2.97;;;2.77;;